sensor_id;sensor_type;location;lat;lon;timestamp;pressure;altitude;pressure_sealevel;temperature;humidity
63663;BME280;49815;51.618;0.336;2022-12-20T00:02:23;99802.52;;;11.13;60.51
63663;BME280;49815;51.618;0.336;2022-12-20T00:04:49;99803.71;;;10.90;60.74
63663;BME280;49815;51.618;0.336;2022-12-20T00:07:14;99811.62;;;11.19;60.20
63663;BME280;49815;51.618;0.336;2022-12-20T00:09:39;99818.33;;;10.90;62.03
63663;BME280;49815;51.618;0.336;2022-12-20T00:12:05;99813.45;;;11.15;59.98
63663;BME280;49815;51.618;0.336;2022-12-20T00:14:30;99817.72;;;11.49;60.56
63663;BME280;49815;51.618;0.336;2022-12-20T00:16:55;99813.69;;;11.33;60.06
63663;BME280;49815;51.618;0.336;2022-12-20T00:19:21;99818.64;;;11.35;59.83
63663;BME280;49815;51.618;0.336;2022-12-20T00:21:47;99818.69;;;10.54;62.34
63663;BME280;49815;51.618;0.336;2022-12-20T00:24:12;99813.52;;;10.68;61.66
63663;BME280;49815;51.618;0.336;2022-12-20T00:26:37;99806.41;;;11.02;60.02
63663;BME280;49815;51.618;0.336;2022-12-20T00:29:03;99800.70;;;11.62;59.11
63663;BME280;49815;51.618;0.336;2022-12-20T00:31:29;99795.19;;;11.45;59.38
63663;BME280;49815;51.618;0.336;2022-12-20T00:33:55;99786.75;;;11.75;58.97
63663;BME280;49815;51.618;0.336;2022-12-20T00:36:18;99787.49;;;11.25;60.29
63663;BME280;49815;51.618;0.336;2022-12-20T00:38:43;99791.21;;;11.75;58.86
63663;BME280;49815;51.618;0.336;2022-12-20T00:41:10;99785.44;;;11.39;59.91
63663;BME280;49815;51.618;0.336;2022-12-20T00:43:35;99792.65;;;11.30;60.09
63663;BME280;49815;51.618;0.336;2022-12-20T00:46:00;99788.74;;;10.96;60.74
63663;BME280;49815;51.618;0.336;2022-12-20T00:48:25;99784.25;;;10.53;61.90
63663;BME280;49815;51.618;0.336;2022-12-20T00:50:50;99789.81;;;10.58;61.93
63663;BME280;49815;51.618;0.336;2022-12-20T00:53:15;99783.00;;;11.22;61.31
63663;BME280;49815;51.618;0.336;2022-12-20T00:55:42;99785.10;;;10.91;61.23
63663;BME280;49815;51.618;0.336;2022-12-20T00:58:07;99793.08;;;10.76;60.46
63663;BME280;49815;51.618;0.336;2022-12-20T01:00:32;99784.68;;;11.70;58.73
63663;BME280;49815;51.618;0.336;2022-12-20T01:02:58;99781.77;;;11.50;59.04
63663;BME280;49815;51.618;0.336;2022-12-20T01:05:23;99777.79;;;12.00;57.92
63663;BME280;49815;51.618;0.336;2022-12-20T01:07:48;99780.11;;;11.31;59.13
63663;BME280;49815;51.618;0.336;2022-12-20T01:10:14;99780.76;;;12.27;58.19
63663;BME280;49815;51.618;0.336;2022-12-20T01:12:39;99783.04;;;12.42;57.36
63663;BME280;49815;51.618;0.336;2022-12-20T01:15:06;99782.24;;;11.60;59.08
63663;BME280;49815;51.618;0.336;2022-12-20T01:17:30;99785.17;;;11.74;58.46
63663;BME280;49815;51.618;0.336;2022-12-20T01:19:55;99780.61;;;11.41;59.50
63663;BME280;49815;51.618;0.336;2022-12-20T01:22:20;99786.57;;;10.89;61.09
63663;BME280;49815;51.618;0.336;2022-12-20T01:24:46;99783.43;;;11.45;60.60
63663;BME280;49815;51.618;0.336;2022-12-20T01:27:11;99781.31;;;11.30;59.71
63663;BME280;49815;51.618;0.336;2022-12-20T01:29:36;99783.55;;;12.03;58.96
63663;BME280;49815;51.618;0.336;2022-12-20T01:32:03;99788.37;;;11.83;59.81
63663;BME280;49815;51.618;0.336;2022-12-20T01:34:27;99786.24;;;11.25;61.23
63663;BME280;49815;51.618;0.336;2022-12-20T01:36:52;99787.61;;;11.72;59.90
63663;BME280;49815;51.618;0.336;2022-12-20T01:39:19;99779.33;;;11.64;60.56
63663;BME280;49815;51.618;0.336;2022-12-20T01:41:44;99779.20;;;11.94;60.02
63663;BME280;49815;51.618;0.336;2022-12-20T01:46:34;99778.39;;;11.05;61.09
63663;BME280;49815;51.618;0.336;2022-12-20T01:49:03;99781.24;;;11.45;61.58
63663;BME280;49815;51.618;0.336;2022-12-20T01:51:25;99775.66;;;11.55;61.44
63663;BME280;49815;51.618;0.336;2022-12-20T01:53:55;99778.95;;;11.27;61.36
63663;BME280;49815;51.618;0.336;2022-12-20T01:56:15;99777.53;;;11.41;61.66
63663;BME280;49815;51.618;0.336;2022-12-20T01:58:41;99784.30;;;11.02;62.32
63663;BME280;49815;51.618;0.336;2022-12-20T02:01:06;99772.60;;;11.06;62.44
63663;BME280;49815;51.618;0.336;2022-12-20T02:03:32;99766.28;;;11.30;61.91
63663;BME280;49815;51.618;0.336;2022-12-20T02:08:22;99759.79;;;11.56;61.23
63663;BME280;49815;51.618;0.336;2022-12-20T02:11:01;99765.83;;;11.36;61.06
63663;BME280;49815;51.618;0.336;2022-12-20T02:13:19;99765.54;;;11.32;61.71
63663;BME280;49815;51.618;0.336;2022-12-20T02:15:41;99772.38;;;11.24;62.14
63663;BME280;49815;51.618;0.336;2022-12-20T02:18:15;99766.48;;;11.11;62.33
63663;BME280;49815;51.618;0.336;2022-12-20T02:20:50;99759.64;;;10.76;62.82
63663;BME280;49815;51.618;0.336;2022-12-20T02:23:10;99764.61;;;11.13;62.23
63663;BME280;49815;51.618;0.336;2022-12-20T02:25:31;99757.72;;;11.42;61.64
63663;BME280;49815;51.618;0.336;2022-12-20T02:27:56;99749.89;;;11.92;60.11
63663;BME280;49815;51.618;0.336;2022-12-20T02:30:13;99748.29;;;12.13;59.88
63663;BME280;49815;51.618;0.336;2022-12-20T02:32:39;99749.91;;;11.85;60.38
63663;BME280;49815;51.618;0.336;2022-12-20T02:35:03;99748.94;;;12.15;59.87
63663;BME280;49815;51.618;0.336;2022-12-20T02:37:26;99754.19;;;11.81;60.24
63663;BME280;49815;51.618;0.336;2022-12-20T02:39:52;99746.59;;;11.54;60.70
63663;BME280;49815;51.618;0.336;2022-12-20T02:42:22;99753.88;;;11.85;59.96
63663;BME280;49815;51.618;0.336;2022-12-20T02:44:45;99744.19;;;11.56;60.64
63663;BME280;49815;51.618;0.336;2022-12-20T02:47:12;99737.20;;;12.15;59.54
63663;BME280;49815;51.618;0.336;2022-12-20T02:49:36;99738.23;;;11.65;60.49
63663;BME280;49815;51.618;0.336;2022-12-20T02:52:00;99736.85;;;12.09;59.91
63663;BME280;49815;51.618;0.336;2022-12-20T02:54:25;99739.04;;;12.08;59.74
63663;BME280;49815;51.618;0.336;2022-12-20T02:56:54;99738.07;;;11.97;59.42
63663;BME280;49815;51.618;0.336;2022-12-20T02:59:19;99735.20;;;12.04;59.81
63663;BME280;49815;51.618;0.336;2022-12-20T03:01:45;99738.96;;;11.47;61.11
63663;BME280;49815;51.618;0.336;2022-12-20T03:04:07;99738.81;;;11.36;61.42
63663;BME280;49815;51.618;0.336;2022-12-20T03:06:32;99733.03;;;11.36;63.22
63663;BME280;49815;51.618;0.336;2022-12-20T03:08:57;99728.92;;;11.63;62.34
63663;BME280;49815;51.618;0.336;2022-12-20T03:11:22;99733.42;;;11.31;62.30
63663;BME280;49815;51.618;0.336;2022-12-20T03:13:48;99730.41;;;11.52;62.04
63663;BME280;49815;51.618;0.336;2022-12-20T03:16:13;99729.35;;;11.75;60.98
63663;BME280;49815;51.618;0.336;2022-12-20T03:18:38;99726.24;;;11.39;63.03
63663;BME280;49815;51.618;0.336;2022-12-20T03:21:04;99726.26;;;11.34;62.98
63663;BME280;49815;51.618;0.336;2022-12-20T03:23:29;99728.67;;;12.18;61.08
63663;BME280;49815;51.618;0.336;2022-12-20T03:25:54;99715.81;;;11.82;61.41
63663;BME280;49815;51.618;0.336;2022-12-20T03:28:20;99719.49;;;11.46;61.19
63663;BME280;49815;51.618;0.336;2022-12-20T03:30:45;99717.86;;;11.93;61.56
63663;BME280;49815;51.618;0.336;2022-12-20T03:33:10;99716.87;;;12.00;60.57
63663;BME280;49815;51.618;0.336;2022-12-20T03:35:36;99714.68;;;11.51;60.80
63663;BME280;49815;51.618;0.336;2022-12-20T03:38:01;99712.25;;;11.37;61.09
63663;BME280;49815;51.618;0.336;2022-12-20T03:40:26;99706.46;;;11.39;62.02
63663;BME280;49815;51.618;0.336;2022-12-20T03:42:52;99716.68;;;11.47;61.29
63663;BME280;49815;51.618;0.336;2022-12-20T03:45:17;99704.84;;;11.59;61.82
63663;BME280;49815;51.618;0.336;2022-12-20T03:47:42;99703.00;;;10.92;63.33
63663;BME280;49815;51.618;0.336;2022-12-20T03:50:09;99686.89;;;10.55;63.42
63663;BME280;49815;51.618;0.336;2022-12-20T03:52:34;99700.80;;;10.60;62.86
63663;BME280;49815;51.618;0.336;2022-12-20T03:54:59;99694.68;;;10.96;61.70
63663;BME280;49815;51.618;0.336;2022-12-20T03:57:25;99703.63;;;11.10;61.70
63663;BME280;49815;51.618;0.336;2022-12-20T03:59:50;99699.47;;;11.41;61.46
63663;BME280;49815;51.618;0.336;2022-12-20T04:02:16;99693.92;;;11.72;60.90
63663;BME280;49815;51.618;0.336;2022-12-20T04:04:41;99688.41;;;11.75;60.32
63663;BME280;49815;51.618;0.336;2022-12-20T04:07:07;99695.06;;;11.64;60.09
63663;BME280;49815;51.618;0.336;2022-12-20T04:09:33;99694.26;;;11.14;61.33
63663;BME280;49815;51.618;0.336;2022-12-20T04:11:57;99693.04;;;11.30;60.72
63663;BME280;49815;51.618;0.336;2022-12-20T04:14:23;99689.14;;;10.31;60.97
63663;BME280;49815;51.618;0.336;2022-12-20T04:16:48;99679.16;;;10.70;60.73
63663;BME280;49815;51.618;0.336;2022-12-20T04:19:13;99684.40;;;11.48;60.73
63663;BME280;49815;51.618;0.336;2022-12-20T04:21:39;99682.34;;;11.36;60.61
63663;BME280;49815;51.618;0.336;2022-12-20T04:24:05;99679.00;;;10.72;61.85
63663;BME280;49815;51.618;0.336;2022-12-20T04:26:30;99675.98;;;10.88;61.96
63663;BME280;49815;51.618;0.336;2022-12-20T04:28:56;99673.26;;;11.33;60.77
63663;BME280;49815;51.618;0.336;2022-12-20T04:31:20;99659.06;;;11.74;59.55
63663;BME280;49815;51.618;0.336;2022-12-20T04:33:46;99667.08;;;10.79;60.67
63663;BME280;49815;51.618;0.336;2022-12-20T04:36:11;99670.17;;;11.11;60.09
63663;BME280;49815;51.618;0.336;2022-12-20T04:38:36;99668.14;;;10.90;60.80
63663;BME280;49815;51.618;0.336;2022-12-20T04:41:03;99660.99;;;11.21;60.95
63663;BME280;49815;51.618;0.336;2022-12-20T04:43:27;99658.01;;;11.37;60.39
63663;BME280;49815;51.618;0.336;2022-12-20T04:45:54;99660.42;;;11.22;59.54
63663;BME280;49815;51.618;0.336;2022-12-20T04:48:19;99658.27;;;11.44;58.91
63663;BME280;49815;51.618;0.336;2022-12-20T04:50:47;99654.78;;;11.05;61.65
63663;BME280;49815;51.618;0.336;2022-12-20T04:53:10;99651.18;;;11.21;61.29
63663;BME280;49815;51.618;0.336;2022-12-20T04:55:36;99656.17;;;10.60;61.92
63663;BME280;49815;51.618;0.336;2022-12-20T04:58:00;99661.93;;;10.60;61.39
63663;BME280;49815;51.618;0.336;2022-12-20T05:00:25;99658.41;;;11.11;60.59
63663;BME280;49815;51.618;0.336;2022-12-20T05:02:50;99654.70;;;11.13;59.77
63663;BME280;49815;51.618;0.336;2022-12-20T05:05:16;99646.79;;;11.22;60.60
63663;BME280;49815;51.618;0.336;2022-12-20T05:07:41;99645.94;;;10.82;61.62
63663;BME280;49815;51.618;0.336;2022-12-20T05:10:07;99641.17;;;10.67;61.17
63663;BME280;49815;51.618;0.336;2022-12-20T05:12:32;99640.34;;;11.78;59.67
63663;BME280;49815;51.618;0.336;2022-12-20T05:14:57;99632.28;;;11.00;61.49
63663;BME280;49815;51.618;0.336;2022-12-20T05:17:22;99639.37;;;10.42;62.62
63663;BME280;49815;51.618;0.336;2022-12-20T05:19:48;99635.91;;;11.16;61.30
63663;BME280;49815;51.618;0.336;2022-12-20T05:22:13;99642.84;;;10.96;61.39
63663;BME280;49815;51.618;0.336;2022-12-20T05:24:38;99636.45;;;10.64;61.84
63663;BME280;49815;51.618;0.336;2022-12-20T05:27:04;99625.68;;;10.71;61.95
63663;BME280;49815;51.618;0.336;2022-12-20T05:29:29;99620.36;;;11.07;61.62
63663;BME280;49815;51.618;0.336;2022-12-20T05:31:54;99620.00;;;11.35;60.84
63663;BME280;49815;51.618;0.336;2022-12-20T05:34:20;99612.83;;;11.08;61.05
63663;BME280;49815;51.618;0.336;2022-12-20T05:36:45;99618.99;;;11.51;60.75
63663;BME280;49815;51.618;0.336;2022-12-20T05:39:11;99612.22;;;11.48;59.76
63663;BME280;49815;51.618;0.336;2022-12-20T05:41:36;99615.30;;;11.55;59.86
63663;BME280;49815;51.618;0.336;2022-12-20T05:44:01;99614.97;;;11.59;59.82
63663;BME280;49815;51.618;0.336;2022-12-20T05:46:26;99618.02;;;11.25;60.01
63663;BME280;49815;51.618;0.336;2022-12-20T05:48:52;99618.42;;;11.26;60.52
63663;BME280;49815;51.618;0.336;2022-12-20T05:51:17;99627.05;;;11.28;60.52
63663;BME280;49815;51.618;0.336;2022-12-20T05:53:42;99621.92;;;11.35;60.38
63663;BME280;49815;51.618;0.336;2022-12-20T05:56:07;99618.94;;;11.33;59.64
63663;BME280;49815;51.618;0.336;2022-12-20T05:58:33;99620.55;;;11.06;60.76
63663;BME280;49815;51.618;0.336;2022-12-20T06:00:59;99621.61;;;11.14;61.35
63663;BME280;49815;51.618;0.336;2022-12-20T06:03:23;99622.29;;;10.91;61.02
63663;BME280;49815;51.618;0.336;2022-12-20T06:05:48;99614.88;;;11.29;60.89
63663;BME280;49815;51.618;0.336;2022-12-20T06:08:13;99612.28;;;10.41;63.02
63663;BME280;49815;51.618;0.336;2022-12-20T06:10:40;99609.51;;;11.08;62.10
63663;BME280;49815;51.618;0.336;2022-12-20T06:13:04;99611.34;;;10.83;62.45
63663;BME280;49815;51.618;0.336;2022-12-20T06:15:30;99622.79;;;11.06;61.81
63663;BME280;49815;51.618;0.336;2022-12-20T06:17:54;99627.98;;;11.34;61.10
63663;BME280;49815;51.618;0.336;2022-12-20T06:20:20;99633.25;;;10.63;63.42
63663;BME280;49815;51.618;0.336;2022-12-20T06:22:45;99635.51;;;10.73;63.97
63663;BME280;49815;51.618;0.336;2022-12-20T06:25:11;99641.30;;;10.85;62.95
63663;BME280;49815;51.618;0.336;2022-12-20T06:27:36;99641.82;;;10.19;63.94
63663;BME280;49815;51.618;0.336;2022-12-20T06:30:02;99646.63;;;10.72;63.52
63663;BME280;49815;51.618;0.336;2022-12-20T06:32:27;99645.50;;;10.35;62.85
63663;BME280;49815;51.618;0.336;2022-12-20T06:34:52;99647.24;;;10.86;62.58
63663;BME280;49815;51.618;0.336;2022-12-20T06:37:18;99643.09;;;10.49;64.20
63663;BME280;49815;51.618;0.336;2022-12-20T06:39:43;99644.89;;;11.03;63.56
63663;BME280;49815;51.618;0.336;2022-12-20T06:42:08;99652.49;;;10.73;62.81
63663;BME280;49815;51.618;0.336;2022-12-20T06:44:34;99649.50;;;10.77;62.95
63663;BME280;49815;51.618;0.336;2022-12-20T06:47:00;99658.07;;;10.77;63.49
63663;BME280;49815;51.618;0.336;2022-12-20T06:49:24;99662.60;;;10.17;64.21
63663;BME280;49815;51.618;0.336;2022-12-20T06:51:50;99669.47;;;10.60;62.54
63663;BME280;49815;51.618;0.336;2022-12-20T06:54:15;99666.43;;;11.12;62.04
63663;BME280;49815;51.618;0.336;2022-12-20T06:56:40;99665.44;;;11.23;61.13
63663;BME280;49815;51.618;0.336;2022-12-20T06:59:05;99664.86;;;11.09;60.75
63663;BME280;49815;51.618;0.336;2022-12-20T07:01:31;99665.23;;;11.59;60.70
63663;BME280;49815;51.618;0.336;2022-12-20T07:03:57;99668.09;;;11.38;60.10
63663;BME280;49815;51.618;0.336;2022-12-20T07:06:22;99679.84;;;11.12;60.96
63663;BME280;49815;51.618;0.336;2022-12-20T07:08:48;99676.95;;;11.78;60.19
63663;BME280;49815;51.618;0.336;2022-12-20T07:11:13;99690.16;;;11.33;60.86
63663;BME280;49815;51.618;0.336;2022-12-20T07:13:38;99695.61;;;11.82;59.42
63663;BME280;49815;51.618;0.336;2022-12-20T07:16:05;99698.95;;;11.34;60.64
63663;BME280;49815;51.618;0.336;2022-12-20T07:18:29;99702.86;;;11.62;59.60
63663;BME280;49815;51.618;0.336;2022-12-20T07:20:58;99703.61;;;11.37;59.43
63663;BME280;49815;51.618;0.336;2022-12-20T07:23:19;99703.67;;;11.20;59.84
63663;BME280;49815;51.618;0.336;2022-12-20T07:25:53;99722.07;;;11.68;59.96
63663;BME280;49815;51.618;0.336;2022-12-20T07:28:10;99733.99;;;12.63;57.62
63663;BME280;49815;51.618;0.336;2022-12-20T07:30:36;99739.27;;;11.60;58.25
63663;BME280;49815;51.618;0.336;2022-12-20T07:33:01;99747.15;;;12.36;57.50
63663;BME280;49815;51.618;0.336;2022-12-20T07:35:26;99756.52;;;12.39;57.42
63663;BME280;49815;51.618;0.336;2022-12-20T07:37:51;99764.39;;;12.20;57.65
63663;BME280;49815;51.618;0.336;2022-12-20T07:40:17;99773.29;;;12.64;55.82
63663;BME280;49815;51.618;0.336;2022-12-20T07:42:42;99780.46;;;12.83;54.59
63663;BME280;49815;51.618;0.336;2022-12-20T07:45:08;99792.01;;;10.43;57.44
63663;BME280;49815;51.618;0.336;2022-12-20T07:47:34;99785.95;;;11.56;54.83
63663;BME280;49815;51.618;0.336;2022-12-20T07:49:58;99791.92;;;11.36;54.46
63663;BME280;49815;51.618;0.336;2022-12-20T07:52:25;99795.31;;;12.45;52.87
63663;BME280;49815;51.618;0.336;2022-12-20T07:54:50;99799.12;;;12.72;51.91
63663;BME280;49815;51.618;0.336;2022-12-20T07:57:16;99801.40;;;12.44;52.24
63663;BME280;49815;51.618;0.336;2022-12-20T07:59:45;99807.12;;;12.63;51.53
63663;BME280;49815;51.618;0.336;2022-12-20T08:02:05;99820.50;;;12.42;51.32
63663;BME280;49815;51.618;0.336;2022-12-20T08:04:32;99829.25;;;12.87;51.49
63663;BME280;49815;51.618;0.336;2022-12-20T08:06:57;99828.56;;;12.24;51.36
63663;BME280;49815;51.618;0.336;2022-12-20T08:09:22;99827.93;;;12.54;50.69
63663;BME280;49815;51.618;0.336;2022-12-20T08:11:48;99830.45;;;12.26;51.48
63663;BME280;49815;51.618;0.336;2022-12-20T08:14:12;99833.84;;;11.99;51.72
63663;BME280;49815;51.618;0.336;2022-12-20T08:16:37;99841.35;;;10.97;53.39
63663;BME280;49815;51.618;0.336;2022-12-20T08:19:03;99839.42;;;12.07;52.49
63663;BME280;49815;51.618;0.336;2022-12-20T08:21:29;99843.71;;;11.35;53.29
63663;BME280;49815;51.618;0.336;2022-12-20T08:23:53;99842.40;;;11.73;52.74
63663;BME280;49815;51.618;0.336;2022-12-20T08:26:19;99852.78;;;11.57;53.96
63663;BME280;49815;51.618;0.336;2022-12-20T08:28:44;99851.22;;;11.60;53.45
63663;BME280;49815;51.618;0.336;2022-12-20T08:31:10;99857.93;;;11.10;54.27
63663;BME280;49815;51.618;0.336;2022-12-20T08:33:36;99861.00;;;10.89;54.67
63663;BME280;49815;51.618;0.336;2022-12-20T08:36:02;99867.45;;;11.36;53.59
63663;BME280;49815;51.618;0.336;2022-12-20T08:38:26;99873.87;;;10.92;54.16
63663;BME280;49815;51.618;0.336;2022-12-20T08:40:51;99874.78;;;11.31;53.22
63663;BME280;49815;51.618;0.336;2022-12-20T08:43:17;99881.69;;;10.81;53.18
63663;BME280;49815;51.618;0.336;2022-12-20T08:45:42;99892.22;;;11.21;53.18
63663;BME280;49815;51.618;0.336;2022-12-20T08:48:07;99895.32;;;10.89;53.28
63663;BME280;49815;51.618;0.336;2022-12-20T08:50:33;99896.01;;;10.35;54.16
63663;BME280;49815;51.618;0.336;2022-12-20T08:52:59;99903.62;;;10.44;53.50
63663;BME280;49815;51.618;0.336;2022-12-20T08:55:23;99906.23;;;9.74;54.41
63663;BME280;49815;51.618;0.336;2022-12-20T08:57:49;99909.70;;;10.03;54.20
63663;BME280;49815;51.618;0.336;2022-12-20T09:00:14;99912.76;;;10.20;53.71
63663;BME280;49815;51.618;0.336;2022-12-20T09:02:40;99926.53;;;10.67;52.71
63663;BME280;49815;51.618;0.336;2022-12-20T09:05:06;99930.66;;;9.89;53.45
63663;BME280;49815;51.618;0.336;2022-12-20T09:07:31;99932.31;;;10.22;53.36
63663;BME280;49815;51.618;0.336;2022-12-20T09:09:56;99932.72;;;10.02;53.22
63663;BME280;49815;51.618;0.336;2022-12-20T09:12:22;99929.62;;;10.41;52.45
63663;BME280;49815;51.618;0.336;2022-12-20T09:14:47;99936.74;;;10.00;53.00
63663;BME280;49815;51.618;0.336;2022-12-20T09:17:12;99942.42;;;10.11;53.30
63663;BME280;49815;51.618;0.336;2022-12-20T09:19:38;99956.34;;;9.30;55.04
63663;BME280;49815;51.618;0.336;2022-12-20T09:22:03;99964.67;;;9.44;55.17
63663;BME280;49815;51.618;0.336;2022-12-20T09:24:28;99966.94;;;10.27;52.95
63663;BME280;49815;51.618;0.336;2022-12-20T09:26:54;99968.16;;;9.98;53.33
63663;BME280;49815;51.618;0.336;2022-12-20T09:29:19;99967.16;;;9.70;53.10
63663;BME280;49815;51.618;0.336;2022-12-20T09:31:45;99975.29;;;9.85;53.51
63663;BME280;49815;51.618;0.336;2022-12-20T09:34:10;99981.79;;;9.76;53.29
63663;BME280;49815;51.618;0.336;2022-12-20T09:36:36;99985.68;;;9.78;52.67
63663;BME280;49815;51.618;0.336;2022-12-20T09:39:01;99988.13;;;10.49;51.86
63663;BME280;49815;51.618;0.336;2022-12-20T09:41:31;99994.92;;;8.31;55.04
63663;BME280;49815;51.618;0.336;2022-12-20T09:43:52;99992.13;;;9.92;53.27
63663;BME280;49815;51.618;0.336;2022-12-20T09:46:18;99996.32;;;10.12;52.90
63663;BME280;49815;51.618;0.336;2022-12-20T09:48:43;100003.20;;;9.56;53.06
63663;BME280;49815;51.618;0.336;2022-12-20T09:51:18;100014.30;;;10.10;52.04
63663;BME280;49815;51.618;0.336;2022-12-20T09:53:42;100020.77;;;8.85;54.86
63663;BME280;49815;51.618;0.336;2022-12-20T09:56:04;100020.96;;;10.11;53.10
63663;BME280;49815;51.618;0.336;2022-12-20T09:58:35;100016.42;;;9.89;52.86
63663;BME280;49815;51.618;0.336;2022-12-20T10:00:50;100014.56;;;9.75;52.18
63663;BME280;49815;51.618;0.336;2022-12-20T10:03:20;100029.65;;;9.10;53.80
63663;BME280;49815;51.618;0.336;2022-12-20T10:05:49;100033.37;;;9.91;52.65
63663;BME280;49815;51.618;0.336;2022-12-20T10:08:14;100026.41;;;9.60;52.79
63663;BME280;49815;51.618;0.336;2022-12-20T10:10:44;100022.29;;;9.97;51.93
63663;BME280;49815;51.618;0.336;2022-12-20T10:13:03;100028.38;;;9.53;52.50
63663;BME280;49815;51.618;0.336;2022-12-20T10:15:27;100029.16;;;9.81;51.40
63663;BME280;49815;51.618;0.336;2022-12-20T10:17:59;100033.80;;;9.59;51.68
63663;BME280;49815;51.618;0.336;2022-12-20T10:20:25;100040.43;;;9.97;51.59
63663;BME280;49815;51.618;0.336;2022-12-20T10:22:45;100036.39;;;9.69;51.58
63663;BME280;49815;51.618;0.336;2022-12-20T10:25:13;100042.81;;;9.92;50.99
63663;BME280;49815;51.618;0.336;2022-12-20T10:27:31;100042.85;;;9.98;51.19
63663;BME280;49815;51.618;0.336;2022-12-20T10:29:56;100042.05;;;10.04;50.98
63663;BME280;49815;51.618;0.336;2022-12-20T10:32:23;100046.47;;;9.42;51.32
63663;BME280;49815;51.618;0.336;2022-12-20T10:34:53;100046.41;;;10.05;50.84
63663;BME280;49815;51.618;0.336;2022-12-20T10:37:13;100043.72;;;9.30;52.07
63663;BME280;49815;51.618;0.336;2022-12-20T10:39:40;100045.44;;;9.13;52.39
63663;BME280;49815;51.618;0.336;2022-12-20T10:44:29;100055.68;;;10.00;51.04
63663;BME280;49815;51.618;0.336;2022-12-20T10:46:56;100056.52;;;9.51;51.53
63663;BME280;49815;51.618;0.336;2022-12-20T10:49:28;100053.93;;;9.63;51.10
63663;BME280;49815;51.618;0.336;2022-12-20T10:51:51;100049.18;;;9.56;51.20
63663;BME280;49815;51.618;0.336;2022-12-20T10:54:20;100054.27;;;9.60;51.20
63663;BME280;49815;51.618;0.336;2022-12-20T10:56:36;100050.12;;;9.68;50.69
63663;BME280;49815;51.618;0.336;2022-12-20T10:59:12;100049.45;;;10.04;50.17
63663;BME280;49815;51.618;0.336;2022-12-20T11:01:29;100048.02;;;10.09;50.71
63663;BME280;49815;51.618;0.336;2022-12-20T11:03:55;100048.10;;;10.31;50.86
63663;BME280;49815;51.618;0.336;2022-12-20T11:06:19;100048.74;;;10.50;50.05
63663;BME280;49815;51.618;0.336;2022-12-20T11:08:43;100051.09;;;10.50;49.95
63663;BME280;49815;51.618;0.336;2022-12-20T11:11:13;100045.52;;;11.29;48.91
63663;BME280;49815;51.618;0.336;2022-12-20T11:13:35;100047.17;;;10.88;49.12
63663;BME280;49815;51.618;0.336;2022-12-20T11:15:59;100048.45;;;10.82;49.03
63663;BME280;49815;51.618;0.336;2022-12-20T11:18:35;100046.07;;;10.87;48.00
63663;BME280;49815;51.618;0.336;2022-12-20T11:20:53;100039.48;;;10.40;48.58
63663;BME280;49815;51.618;0.336;2022-12-20T11:23:21;100032.22;;;10.58;48.04
63663;BME280;49815;51.618;0.336;2022-12-20T11:25:51;100038.80;;;10.04;49.50
63663;BME280;49815;51.618;0.336;2022-12-20T11:28:23;100042.25;;;10.35;48.68
63663;BME280;49815;51.618;0.336;2022-12-20T11:30:38;100047.95;;;10.29;49.75
63663;BME280;49815;51.618;0.336;2022-12-20T11:33:08;100050.67;;;11.49;48.02
63663;BME280;49815;51.618;0.336;2022-12-20T11:35:27;100049.60;;;11.10;47.81
63663;BME280;49815;51.618;0.336;2022-12-20T11:37:55;100051.77;;;11.18;47.57
63663;BME280;49815;51.618;0.336;2022-12-20T11:40:25;100057.77;;;10.97;48.11
63663;BME280;49815;51.618;0.336;2022-12-20T11:42:51;100059.05;;;11.55;46.96
63663;BME280;49815;51.618;0.336;2022-12-20T11:45:09;100058.20;;;12.02;46.53
63663;BME280;49815;51.618;0.336;2022-12-20T11:47:42;100059.41;;;11.39;46.74
63663;BME280;49815;51.618;0.336;2022-12-20T11:52:29;100057.21;;;11.22;47.07
63663;BME280;49815;51.618;0.336;2022-12-20T11:54:48;100056.30;;;10.98;47.24
63663;BME280;49815;51.618;0.336;2022-12-20T11:57:15;100062.27;;;10.97;47.50
63663;BME280;49815;51.618;0.336;2022-12-20T11:59:42;100066.55;;;10.57;48.16
63663;BME280;49815;51.618;0.336;2022-12-20T12:02:08;100058.80;;;11.01;47.37
63663;BME280;49815;51.618;0.336;2022-12-20T12:04:30;100062.58;;;11.38;47.33
63663;BME280;49815;51.618;0.336;2022-12-20T12:06:56;100057.71;;;10.33;48.35
63663;BME280;49815;51.618;0.336;2022-12-20T12:09:24;100053.54;;;10.72;46.98
63663;BME280;49815;51.618;0.336;2022-12-20T12:11:48;100049.38;;;11.13;46.95
63663;BME280;49815;51.618;0.336;2022-12-20T12:14:16;100051.77;;;10.82;47.78
63663;BME280;49815;51.618;0.336;2022-12-20T12:16:38;100055.07;;;10.27;48.31
63663;BME280;49815;51.618;0.336;2022-12-20T12:19:00;100054.35;;;10.83;47.36
63663;BME280;49815;51.618;0.336;2022-12-20T12:21:26;100058.06;;;11.40;46.43
63663;BME280;49815;51.618;0.336;2022-12-20T12:23:58;100058.35;;;11.55;46.17
63663;BME280;49815;51.618;0.336;2022-12-20T12:26:19;100054.64;;;10.93;47.22
63663;BME280;49815;51.618;0.336;2022-12-20T12:28:40;100048.78;;;10.99;46.32
63663;BME280;49815;51.618;0.336;2022-12-20T12:31:10;100045.70;;;10.68;46.35
63663;BME280;49815;51.618;0.336;2022-12-20T12:33:34;100041.62;;;10.93;45.54
63663;BME280;49815;51.618;0.336;2022-12-20T12:36:15;100035.11;;;10.81;45.84
63663;BME280;49815;51.618;0.336;2022-12-20T12:38:39;100040.93;;;9.87;47.65
63663;BME280;49815;51.618;0.336;2022-12-20T12:41:02;100038.35;;;10.50;46.96
63663;BME280;49815;51.618;0.336;2022-12-20T12:45:42;100042.69;;;10.99;45.34
63663;BME280;49815;51.618;0.336;2022-12-20T12:48:10;100042.43;;;11.71;45.02
63663;BME280;49815;51.618;0.336;2022-12-20T12:50:32;100032.90;;;10.88;45.77
63663;BME280;49815;51.618;0.336;2022-12-20T12:52:56;100025.47;;;10.64;45.75
63663;BME280;49815;51.618;0.336;2022-12-20T12:55:36;100023.40;;;11.11;44.74
63663;BME280;49815;51.618;0.336;2022-12-20T12:57:54;100025.44;;;11.06;44.57
63663;BME280;49815;51.618;0.336;2022-12-20T13:02:49;100023.45;;;9.87;45.60
63663;BME280;49815;51.618;0.336;2022-12-20T13:09:52;100025.22;;;10.43;45.34